createdAt,value
2018-05-26T00:01:16.613Z,8.63
2018-05-26T00:03:44.143Z,9.27
2018-05-26T00:06:11.672Z,9.43
2018-05-26T00:08:39.184Z,9.10
2018-05-26T00:11:06.706Z,9.07
2018-05-26T00:13:34.281Z,9.10
2018-05-26T00:16:01.815Z,10.10
2018-05-26T00:18:29.401Z,10.37
2018-05-26T00:20:56.983Z,9.37
2018-05-26T00:23:24.499Z,9.60
2018-05-26T00:25:52.030Z,9.33
2018-05-26T00:28:19.536Z,9.00
2018-05-26T00:30:47.035Z,8.83
2018-05-26T00:33:14.568Z,8.80
2018-05-26T00:35:42.089Z,8.80
2018-05-26T00:38:09.612Z,9.37
2018-05-26T00:40:37.165Z,8.93
2018-05-26T00:43:04.725Z,9.30
2018-05-26T00:45:32.271Z,9.07
2018-05-26T00:47:59.796Z,8.83
2018-05-26T00:50:27.343Z,8.83
2018-05-26T00:52:54.870Z,9.27
2018-05-26T00:55:22.378Z,9.20
2018-05-26T00:57:49.932Z,9.07
2018-05-26T01:00:17.478Z,9.27
2018-05-26T01:02:44.987Z,9.20
2018-05-26T01:05:12.486Z,9.43
2018-05-26T01:07:40.017Z,9.97
2018-05-26T01:10:07.526Z,11.30
2018-05-26T01:12:35.031Z,9.73
2018-05-26T01:15:02.531Z,12.40
2018-05-26T01:17:30.126Z,11.70
2018-05-26T01:19:57.646Z,11.77
2018-05-26T01:22:25.173Z,11.10
2018-05-26T01:24:52.689Z,11.40
2018-05-26T01:27:20.212Z,11.13
2018-05-26T01:29:47.714Z,12.93
2018-05-26T01:32:15.236Z,13.30
2018-05-26T01:34:42.744Z,11.37
2018-05-26T01:37:10.273Z,11.90
2018-05-26T01:39:37.795Z,11.27
2018-05-26T01:42:05.312Z,9.80
2018-05-26T01:44:32.830Z,10.33
2018-05-26T01:47:00.400Z,9.80
2018-05-26T01:49:27.910Z,9.63
2018-05-26T01:51:55.428Z,9.80
2018-05-26T01:54:22.932Z,9.60
2018-05-26T01:56:50.523Z,10.27
2018-05-26T01:59:18.043Z,10.40
2018-05-26T02:01:45.582Z,10.53
2018-05-26T02:04:13.142Z,10.40
2018-05-26T02:06:40.703Z,10.27
2018-05-26T02:09:08.267Z,11.50
2018-05-26T02:11:35.816Z,10.63
2018-05-26T02:14:03.335Z,10.00
2018-05-26T02:16:30.858Z,11.50
2018-05-26T02:18:58.381Z,10.97
2018-05-26T02:21:25.927Z,11.23
2018-05-26T02:23:53.439Z,9.77
2018-05-26T02:26:20.958Z,10.73
2018-05-26T02:28:48.462Z,10.97
2018-05-26T02:31:16.017Z,10.93
2018-05-26T02:33:43.544Z,10.63
2018-05-26T02:36:11.100Z,10.63
2018-05-26T02:38:38.615Z,11.47
2018-05-26T02:41:06.162Z,11.63
2018-05-26T02:43:33.716Z,11.77
2018-05-26T02:46:01.274Z,11.23
2018-05-26T02:48:29.750Z,12.60
2018-05-26T02:50:57.267Z,13.03
2018-05-26T02:53:24.833Z,12.07
2018-05-26T02:55:52.365Z,11.73
2018-05-26T02:58:19.911Z,14.20
2018-05-26T03:00:47.473Z,13.67
2018-05-26T03:03:15.020Z,14.03
2018-05-26T03:05:48.215Z,15.77
2018-05-26T03:08:21.144Z,16.63
2018-05-26T03:10:54.260Z,16.73
2018-05-26T03:13:27.195Z,16.20
2018-05-26T03:16:13.443Z,16.83
2018-05-26T03:18:40.962Z,16.40
2018-05-26T03:21:08.526Z,15.53
2018-05-26T03:23:36.087Z,15.77
2018-05-26T03:26:03.620Z,15.77
2018-05-26T03:28:31.159Z,15.60
2018-05-26T03:30:58.721Z,16.33
2018-05-26T03:33:26.254Z,15.37
2018-05-26T03:35:53.773Z,16.93
2018-05-26T03:38:21.336Z,15.03
2018-05-26T03:40:48.849Z,15.80
2018-05-26T03:43:16.397Z,15.53
2018-05-26T03:45:44.288Z,14.30
2018-05-26T03:48:11.815Z,15.47
2018-05-26T03:50:39.388Z,14.67
2018-05-26T03:53:06.915Z,15.20
2018-05-26T03:55:46.252Z,14.63
2018-05-26T03:58:34.530Z,12.53
2018-05-26T04:01:02.044Z,12.63
2018-05-26T04:03:29.569Z,13.17
2018-05-26T04:05:57.229Z,14.30
2018-05-26T04:08:24.695Z,15.37
2018-05-26T04:10:52.216Z,13.80
2018-05-26T04:13:19.764Z,14.43
2018-05-26T04:15:47.278Z,13.87
2018-05-26T04:18:14.867Z,14.47
2018-05-26T04:20:42.438Z,14.37
2018-05-26T04:23:09.942Z,13.37
2018-05-26T04:25:37.467Z,14.00
2018-05-26T04:28:05.017Z,12.73
2018-05-26T04:30:32.576Z,13.00
2018-05-26T04:33:00.155Z,13.20
2018-05-26T04:35:27.772Z,16.63
2018-05-26T04:37:55.312Z,16.63
2018-05-26T04:40:22.837Z,17.77
2018-05-26T04:42:50.380Z,19.00
2018-05-26T04:45:17.236Z,18.20
2018-05-26T04:47:44.759Z,17.63
2018-05-26T04:50:12.288Z,18.63
2018-05-26T04:52:39.817Z,18.07
2018-05-26T04:55:07.335Z,19.13
2018-05-26T04:57:34.845Z,18.07
2018-05-26T05:00:03.544Z,17.27
2018-05-26T05:02:31.096Z,19.17
2018-05-26T05:04:58.650Z,18.10
2018-05-26T05:07:26.184Z,16.53
2018-05-26T05:09:53.759Z,17.20
2018-05-26T05:12:21.316Z,17.13
2018-05-26T05:14:48.925Z,16.60
2018-05-26T05:17:16.496Z,15.00
2018-05-26T05:19:44.045Z,15.27
2018-05-26T05:22:11.555Z,15.50
2018-05-26T05:24:39.089Z,15.20
2018-05-26T05:27:06.652Z,13.80
2018-05-26T05:29:34.232Z,14.17
2018-05-26T05:32:01.759Z,13.90
2018-05-26T05:34:29.336Z,10.43
2018-05-26T05:36:57.599Z,8.63
2018-05-26T05:39:25.178Z,8.93
2018-05-26T05:41:52.693Z,10.23
2018-05-26T05:44:20.191Z,9.83
2018-05-26T05:46:47.953Z,8.70
2018-05-26T05:49:15.476Z,8.80
2018-05-26T05:51:43.017Z,8.93
2018-05-26T05:54:10.524Z,8.20
2018-05-26T05:56:38.899Z,7.30
2018-05-26T05:59:06.455Z,7.47
2018-05-26T06:01:34.016Z,7.37
2018-05-26T06:04:01.512Z,7.97
2018-05-26T06:06:29.068Z,7.50
2018-05-26T06:08:56.615Z,6.70
2018-05-26T06:11:24.141Z,6.37
2018-05-26T06:13:51.638Z,6.77
2018-05-26T06:16:19.199Z,6.50
2018-05-26T06:18:46.740Z,7.13
2018-05-26T06:21:14.276Z,6.33
2018-05-26T06:23:41.803Z,5.93
2018-05-26T06:26:09.350Z,6.57
2018-05-26T06:28:36.874Z,6.30
2018-05-26T06:31:05.268Z,5.87
2018-05-26T06:33:32.771Z,6.27
2018-05-26T06:36:00.299Z,6.20
2018-05-26T06:38:27.815Z,6.17
2018-05-26T06:40:55.340Z,5.53
2018-05-26T06:43:22.868Z,6.37
2018-05-26T06:45:50.373Z,6.17
2018-05-26T06:48:17.912Z,5.53
2018-05-26T06:50:45.414Z,5.70
2018-05-26T06:53:12.926Z,10.53
2018-05-26T06:55:40.451Z,5.80
2018-05-26T06:58:07.951Z,5.70
2018-05-26T07:00:35.455Z,6.30
2018-05-26T07:03:03.020Z,6.57
2018-05-26T07:05:30.525Z,6.00
2018-05-26T07:07:58.057Z,5.93
2018-05-26T07:10:25.634Z,6.13
2018-05-26T07:12:53.140Z,6.80
2018-05-26T07:15:20.636Z,6.10
2018-05-26T07:17:48.139Z,6.80
2018-05-26T07:20:15.661Z,5.53
2018-05-26T07:22:43.171Z,6.20
2018-05-26T07:25:10.689Z,6.00
2018-05-26T07:27:38.205Z,6.47
2018-05-26T07:30:05.729Z,6.10
2018-05-26T07:32:33.234Z,5.73
2018-05-26T07:35:00.750Z,6.57
2018-05-26T07:37:28.273Z,5.77
2018-05-26T07:39:55.787Z,5.87
2018-05-26T07:42:23.309Z,5.93
2018-05-26T07:44:50.860Z,7.90
2018-05-26T07:47:18.397Z,6.00
2018-05-26T07:49:45.979Z,6.03
2018-05-26T07:52:13.481Z,6.20
2018-05-26T07:54:40.995Z,6.10
2018-05-26T07:57:08.569Z,5.70
2018-05-26T07:59:36.058Z,6.00
2018-05-26T08:02:03.592Z,6.03
2018-05-26T08:04:31.103Z,5.87
2018-05-26T08:07:00.804Z,5.83
2018-05-26T08:09:29.117Z,6.13
2018-05-26T08:11:57.528Z,6.33
2018-05-26T08:14:25.066Z,6.00
2018-05-26T08:16:52.668Z,5.80
2018-05-26T08:19:20.166Z,5.57
2018-05-26T08:21:48.882Z,12.13
2018-05-26T08:24:16.383Z,6.50
2018-05-26T08:26:44.698Z,5.53
2018-05-26T08:29:12.206Z,5.23
2018-05-26T08:31:39.793Z,5.20
2018-05-26T08:34:07.309Z,5.73
2018-05-26T08:36:34.853Z,4.90
2018-05-26T08:39:02.463Z,5.50
2018-05-26T08:41:29.980Z,5.33
2018-05-26T08:43:57.522Z,5.73
2018-05-26T08:46:25.101Z,5.80
2018-05-26T08:48:52.611Z,5.40
2018-05-26T08:51:20.109Z,4.87
2018-05-26T08:53:47.641Z,5.40
2018-05-26T08:56:15.187Z,5.00
2018-05-26T08:58:43.489Z,5.00
2018-05-26T09:01:11.914Z,5.30
2018-05-26T09:03:39.487Z,5.40
2018-05-26T09:06:07.903Z,4.73
2018-05-26T09:08:35.426Z,5.30
2018-05-26T09:11:05.033Z,6.00
2018-05-26T09:13:32.548Z,5.27
2018-05-26T09:16:00.064Z,4.90
2018-05-26T09:18:27.650Z,5.10
2018-05-26T09:20:55.176Z,5.27
2018-05-26T09:23:22.763Z,4.73
2018-05-26T09:25:50.384Z,4.80
2018-05-26T09:28:18.280Z,5.40
2018-05-26T09:30:45.846Z,5.20
2018-05-26T09:33:14.391Z,5.60
2018-05-26T09:35:43.003Z,4.20
2018-05-26T09:38:11.381Z,4.77
2018-05-26T09:40:38.936Z,4.70
2018-05-26T09:43:07.155Z,4.20
2018-05-26T09:45:34.716Z,4.75
2018-05-26T09:48:02.249Z,4.72
2018-05-26T09:50:29.881Z,4.97
2018-05-26T09:52:57.482Z,4.80
2018-05-26T09:55:25.003Z,4.65
2018-05-26T09:57:52.539Z,4.47
2018-05-26T10:00:20.102Z,14.37
2018-05-26T10:02:47.634Z,6.87
2018-05-26T10:05:15.186Z,4.20
2018-05-26T10:07:42.748Z,4.93
2018-05-26T10:10:11.296Z,4.20
2018-05-26T10:12:38.802Z,4.37
2018-05-26T10:15:06.383Z,4.00
2018-05-26T10:17:33.961Z,4.17
2018-05-26T10:20:01.621Z,3.90
2018-05-26T10:22:29.152Z,3.95
2018-05-26T10:24:56.660Z,3.90
2018-05-26T10:27:24.207Z,3.83
2018-05-26T10:29:51.751Z,4.00
2018-05-26T10:32:19.343Z,3.95
2018-05-26T10:34:46.845Z,3.53
2018-05-26T10:37:14.415Z,4.20
2018-05-26T10:39:42.075Z,3.50
2018-05-26T10:42:09.583Z,4.03
2018-05-26T10:44:37.200Z,3.53
2018-05-26T10:47:04.790Z,3.67
2018-05-26T10:49:32.311Z,3.60
2018-05-26T10:51:59.893Z,4.10
2018-05-26T10:54:27.490Z,3.65
2018-05-26T10:56:55.759Z,3.92
2018-05-26T10:59:23.279Z,3.70
2018-05-26T11:01:50.806Z,3.92
2018-05-26T11:04:18.375Z,3.95
2018-05-26T11:06:47.657Z,3.90
2018-05-26T11:09:15.240Z,3.67
2018-05-26T11:11:42.828Z,3.90
2018-05-26T11:14:10.352Z,3.70
2018-05-26T11:16:37.936Z,3.80
2018-05-26T11:19:05.533Z,3.58
2018-05-26T11:21:33.013Z,3.87
2018-05-26T11:24:00.742Z,3.50
2018-05-26T11:26:28.048Z,4.03
2018-05-26T11:28:55.586Z,3.70
2018-05-26T11:31:23.087Z,3.60
2018-05-26T11:33:50.829Z,4.15
2018-05-26T11:36:18.372Z,3.33
2018-05-26T11:38:46.619Z,3.70
2018-05-26T11:41:14.238Z,3.67
2018-05-26T11:43:41.818Z,3.83
2018-05-26T11:46:09.349Z,3.40
2018-05-26T11:48:36.938Z,3.10
2018-05-26T11:51:04.476Z,3.42
2018-05-26T11:53:32.000Z,3.58
2018-05-26T11:55:59.552Z,3.97
2018-05-26T11:58:27.060Z,3.08
2018-05-26T12:00:54.560Z,3.33
2018-05-26T12:03:22.081Z,3.50
2018-05-26T12:05:49.625Z,3.30
2018-05-26T12:08:19.213Z,4.18
2018-05-26T12:10:46.770Z,3.75
2018-05-26T12:13:14.375Z,3.17
2018-05-26T12:15:41.944Z,3.85
2018-05-26T12:18:09.453Z,4.50
2018-05-26T12:20:38.039Z,4.28
2018-05-26T12:23:05.609Z,4.22
2018-05-26T12:25:34.156Z,4.35
2018-05-26T12:28:01.689Z,4.20
2018-05-26T12:30:29.246Z,4.07
2018-05-26T12:32:56.779Z,4.32
2018-05-26T12:35:24.342Z,3.95
2018-05-26T12:37:51.889Z,4.93
2018-05-26T12:40:19.449Z,5.07
2018-05-26T12:42:47.060Z,5.12
2018-05-26T12:45:14.582Z,4.72
2018-05-26T12:47:42.196Z,4.53
2018-05-26T12:50:09.710Z,4.37
2018-05-26T12:52:37.258Z,4.35
2018-05-26T12:55:04.829Z,4.28
2018-05-26T12:57:33.198Z,4.40
2018-05-26T13:00:00.732Z,4.32
2018-05-26T13:02:28.246Z,4.65
2018-05-26T13:04:55.793Z,4.47
2018-05-26T13:07:23.334Z,4.37
2018-05-26T13:09:50.831Z,4.18
2018-05-26T13:12:18.385Z,4.53
2018-05-26T13:14:45.924Z,3.97
2018-05-26T13:17:13.435Z,4.15
2018-05-26T13:19:40.954Z,4.35
2018-05-26T13:22:08.521Z,4.10
2018-05-26T13:24:36.039Z,3.53
2018-05-26T13:27:03.586Z,3.70
2018-05-26T13:29:31.082Z,3.65
2018-05-26T13:31:58.626Z,3.60
2018-05-26T13:34:26.139Z,3.45
2018-05-26T13:36:54.807Z,3.92
2018-05-26T13:39:23.421Z,3.25
2018-05-26T13:41:52.073Z,3.65
2018-05-26T13:44:19.614Z,3.45
2018-05-26T13:46:47.127Z,3.78
2018-05-26T13:49:14.679Z,3.90
2018-05-26T13:51:42.160Z,3.55
2018-05-26T13:54:09.694Z,3.70
2018-05-26T13:56:37.201Z,3.80
2018-05-26T13:59:04.710Z,4.05
2018-05-26T14:01:32.234Z,3.83
2018-05-26T14:03:59.758Z,4.20
2018-05-26T14:06:27.297Z,3.45
2018-05-26T14:08:54.821Z,3.35
2018-05-26T14:11:22.360Z,3.50
2018-05-26T14:13:49.924Z,3.45
2018-05-26T14:16:17.452Z,3.75
2018-05-26T14:18:44.972Z,3.62
2018-05-26T14:21:12.486Z,3.62
2018-05-26T14:23:40.042Z,3.58
2018-05-26T14:26:07.560Z,3.78
2018-05-26T14:28:35.251Z,3.78
2018-05-26T14:31:02.854Z,3.53
2018-05-26T14:33:30.546Z,3.30
2018-05-26T14:35:58.210Z,3.53
2018-05-26T14:38:25.757Z,3.17
2018-05-26T14:40:53.305Z,3.62
2018-05-26T14:43:20.821Z,3.35
2018-05-26T14:45:48.359Z,3.60
2018-05-26T14:48:15.867Z,3.08
2018-05-26T14:50:43.400Z,3.60
2018-05-26T14:53:10.924Z,3.60
2018-05-26T14:55:38.460Z,3.47
2018-05-26T14:58:05.967Z,3.47
2018-05-26T15:00:33.467Z,3.72
2018-05-26T15:03:01.008Z,3.17
2018-05-26T15:05:28.533Z,3.90
2018-05-26T15:07:56.061Z,3.40
2018-05-26T15:10:23.608Z,3.78
2018-05-26T15:12:51.259Z,3.58
2018-05-26T15:15:18.728Z,3.65
2018-05-26T15:17:46.243Z,3.67
2018-05-26T15:20:13.750Z,3.78
2018-05-26T15:22:42.081Z,3.80
2018-05-26T15:25:09.615Z,3.50
2018-05-26T15:27:37.123Z,3.62
2018-05-26T15:30:06.079Z,3.70
2018-05-26T15:32:33.577Z,3.90
2018-05-26T15:35:01.103Z,4.53
2018-05-26T15:37:28.624Z,4.20
2018-05-26T15:39:56.204Z,3.85
2018-05-26T15:42:23.715Z,3.62
2018-05-26T15:44:52.123Z,4.78
2018-05-26T15:47:19.643Z,4.00
2018-05-26T15:49:47.150Z,3.97
2018-05-26T15:52:14.650Z,3.67
2018-05-26T15:54:42.186Z,3.47
2018-05-26T15:57:09.704Z,4.37
2018-05-26T15:59:37.244Z,4.15
2018-05-26T16:02:05.728Z,4.22
2018-05-26T16:04:33.232Z,4.12
2018-05-26T16:07:00.788Z,4.20
2018-05-26T16:09:28.286Z,4.78
2018-05-26T16:11:55.818Z,4.22
2018-05-26T16:14:23.326Z,4.20
2018-05-26T16:16:50.829Z,4.03
2018-05-26T16:19:18.374Z,5.00
2018-05-26T16:21:45.925Z,4.90
2018-05-26T16:24:13.511Z,6.95
2018-05-26T16:26:41.006Z,6.53
2018-05-26T16:29:08.552Z,5.30
2018-05-26T16:31:36.075Z,4.75
2018-05-26T16:34:03.597Z,4.72
2018-05-26T16:36:31.165Z,4.55
2018-05-26T16:38:58.667Z,4.60
2018-05-26T16:41:26.204Z,4.40
2018-05-26T16:43:53.716Z,4.62
2018-05-26T16:46:21.229Z,4.85
2018-05-26T16:48:48.748Z,5.20
2018-05-26T16:51:16.258Z,5.10
2018-05-26T16:53:43.789Z,4.95
2018-05-26T16:56:11.306Z,4.95
2018-05-26T16:58:38.911Z,5.17
2018-05-26T17:01:06.494Z,5.83
2018-05-26T17:03:33.990Z,5.13
2018-05-26T17:06:01.543Z,16.33
2018-05-26T17:08:29.062Z,6.43
2018-05-26T17:10:56.562Z,5.43
2018-05-26T17:13:24.147Z,5.30
2018-05-26T17:15:52.395Z,5.27
2018-05-26T17:18:19.949Z,4.87
2018-05-26T17:20:47.544Z,5.37
2018-05-26T17:23:15.169Z,5.27
2018-05-26T17:25:42.835Z,5.20
2018-05-26T17:28:10.341Z,5.00
2018-05-26T17:30:38.925Z,5.90
2018-05-26T17:33:06.524Z,5.23
2018-05-26T17:35:35.011Z,5.47
2018-05-26T17:38:02.541Z,5.57
2018-05-26T17:40:32.290Z,4.80
2018-05-26T17:42:59.818Z,5.70
2018-05-26T17:45:27.336Z,5.87
2018-05-26T17:47:54.966Z,5.57
2018-05-26T17:50:22.480Z,5.30
2018-05-26T17:52:50.030Z,5.60
2018-05-26T17:55:17.601Z,5.50
2018-05-26T17:57:45.130Z,5.37
2018-05-26T18:00:12.799Z,6.03
2018-05-26T18:02:40.376Z,5.43
2018-05-26T18:05:07.872Z,5.17
2018-05-26T18:07:35.370Z,5.70
2018-05-26T18:10:02.867Z,6.00
2018-05-26T18:12:32.533Z,6.23
2018-05-26T18:15:00.062Z,6.57
2018-05-26T18:17:27.613Z,6.33
2018-05-26T18:19:55.118Z,6.03
2018-05-26T18:22:23.517Z,6.13
2018-05-26T18:24:51.102Z,5.97
2018-05-26T18:27:18.655Z,6.10
2018-05-26T18:29:46.160Z,5.90
2018-05-26T18:32:13.751Z,5.10
2018-05-26T18:34:41.247Z,5.10
2018-05-26T18:37:08.834Z,5.10
2018-05-26T18:39:36.342Z,4.60
2018-05-26T18:42:03.883Z,5.63
2018-05-26T18:44:31.378Z,6.53
2018-05-26T18:46:58.879Z,5.70
2018-05-26T18:49:26.419Z,5.77
2018-05-26T18:51:53.940Z,5.60
2018-05-26T18:54:21.456Z,5.73
2018-05-26T18:56:48.981Z,5.50
2018-05-26T18:59:16.564Z,5.67
2018-05-26T19:01:44.113Z,6.30
2018-05-26T19:04:11.660Z,5.33
2018-05-26T19:06:39.238Z,5.50
2018-05-26T19:09:06.706Z,5.57
2018-05-26T19:11:34.259Z,6.07
2018-05-26T19:14:01.805Z,5.87
2018-05-26T19:16:29.305Z,5.83
2018-05-26T19:18:56.815Z,6.13
2018-05-26T19:21:24.337Z,6.90
2018-05-26T19:23:51.884Z,5.70
2018-05-26T19:26:19.399Z,5.93
2018-05-26T19:28:46.932Z,5.70
2018-05-26T19:31:14.446Z,5.70
2018-05-26T19:33:41.993Z,6.03
2018-05-26T19:36:09.512Z,6.03
2018-05-26T19:38:37.018Z,5.87
2018-05-26T19:41:04.552Z,5.17
2018-05-26T19:43:32.040Z,5.67
2018-05-26T19:45:59.557Z,6.03
2018-05-26T19:48:27.080Z,5.50
2018-05-26T19:50:54.574Z,5.43
2018-05-26T19:53:22.148Z,5.83
2018-05-26T19:55:49.674Z,5.83
2018-05-26T19:58:17.224Z,6.10
2018-05-26T20:00:44.754Z,5.80
2018-05-26T20:03:12.267Z,5.80
2018-05-26T20:05:39.791Z,6.20
2018-05-26T20:08:07.303Z,5.90
2018-05-26T20:10:34.815Z,6.53
2018-05-26T20:13:02.338Z,6.37
2018-05-26T20:15:29.845Z,5.63
2018-05-26T20:17:57.436Z,5.90
2018-05-26T20:20:24.921Z,6.37
2018-05-26T20:22:52.432Z,6.50
2018-05-26T20:25:19.943Z,6.20
2018-05-26T20:27:47.457Z,6.27
2018-05-26T20:30:14.982Z,6.37
2018-05-26T20:32:42.479Z,6.07
2018-05-26T20:35:11.527Z,6.40
2018-05-26T20:37:39.116Z,6.30
2018-05-26T20:40:06.627Z,5.83
2018-05-26T20:42:34.170Z,7.13
2018-05-26T20:45:01.684Z,6.17
2018-05-26T20:47:29.215Z,5.77
2018-05-26T20:49:56.727Z,6.07
2018-05-26T20:52:24.219Z,6.37
2018-05-26T20:54:51.772Z,6.20
2018-05-26T20:57:19.284Z,6.70
2018-05-26T20:59:47.003Z,5.63
2018-05-26T21:02:14.535Z,7.13
2018-05-26T21:04:42.079Z,6.33
2018-05-26T21:07:09.635Z,6.17
2018-05-26T21:09:37.179Z,6.37
2018-05-26T21:12:04.704Z,6.43
2018-05-26T21:14:32.215Z,7.47
2018-05-26T21:16:59.743Z,6.93
2018-05-26T21:19:27.300Z,9.23
2018-05-26T21:21:54.808Z,8.50
2018-05-26T21:24:22.315Z,8.33
2018-05-26T21:26:49.828Z,9.33
2018-05-26T21:29:17.349Z,7.97
2018-05-26T21:31:44.862Z,9.20
2018-05-26T21:34:12.366Z,11.40
2018-05-26T21:36:39.902Z,11.20
2018-05-26T21:39:07.455Z,10.97
2018-05-26T21:41:34.977Z,11.03
2018-05-26T21:44:02.503Z,10.73
2018-05-26T21:46:30.020Z,10.13
2018-05-26T21:48:57.519Z,9.80
2018-05-26T21:51:25.087Z,9.40
2018-05-26T21:53:52.603Z,10.13
2018-05-26T21:56:20.178Z,9.93
2018-05-26T21:58:47.700Z,9.23
2018-05-26T22:01:15.271Z,8.83
2018-05-26T22:03:42.787Z,8.50
2018-05-26T22:06:10.409Z,7.93
2018-05-26T22:08:37.899Z,8.40
2018-05-26T22:11:05.393Z,7.73
2018-05-26T22:13:32.908Z,7.97
2018-05-26T22:16:00.442Z,7.53
2018-05-26T22:18:27.962Z,7.10
2018-05-26T22:20:55.499Z,6.90
2018-05-26T22:23:23.003Z,6.87
2018-05-26T22:25:50.562Z,6.73
2018-05-26T22:28:18.082Z,6.77
2018-05-26T22:30:45.628Z,6.70
2018-05-26T22:33:13.135Z,7.03
2018-05-26T22:35:40.731Z,7.30
2018-05-26T22:38:08.244Z,6.80
2018-05-26T22:40:35.763Z,7.57
2018-05-26T22:43:03.308Z,6.77
2018-05-26T22:45:30.844Z,6.97
2018-05-26T22:47:58.391Z,6.60
2018-05-26T22:50:25.932Z,7.00
2018-05-26T22:52:53.447Z,7.07
2018-05-26T22:55:20.948Z,6.80
2018-05-26T22:57:48.525Z,6.50
2018-05-26T23:00:16.107Z,6.70
2018-05-26T23:02:43.639Z,7.00
2018-05-26T23:05:11.143Z,6.57
2018-05-26T23:07:38.713Z,6.67
2018-05-26T23:10:06.371Z,7.37
2018-05-26T23:12:33.938Z,7.00
2018-05-26T23:15:01.444Z,7.03
2018-05-26T23:17:28.991Z,8.57
2018-05-26T23:19:56.497Z,8.97
2018-05-26T23:22:24.021Z,7.80
2018-05-26T23:24:51.578Z,8.07
2018-05-26T23:27:19.099Z,8.30
2018-05-26T23:29:46.687Z,7.77
2018-05-26T23:32:14.239Z,7.93
2018-05-26T23:34:41.747Z,8.03
2018-05-26T23:37:09.259Z,8.57
2018-05-26T23:39:36.766Z,7.30
2018-05-26T23:42:04.323Z,7.27
2018-05-26T23:44:31.864Z,7.80
2018-05-26T23:46:59.461Z,7.30
2018-05-26T23:49:26.963Z,8.00
2018-05-26T23:51:54.495Z,7.73
2018-05-26T23:54:22.035Z,8.33
2018-05-26T23:56:49.546Z,8.27
2018-05-26T23:59:17.076Z,7.73
